Time;durP1;ratioP1;P1;durP2;ratioP2;P2;SDS_P1;SDS_P2;PMS_P1;PMS_P2;Temp;Humidity;BMP_temperature;BMP_pressure;BME280_temperature;BME280_humidity;BME280_pressure;Samples;Min_cycle;Max_cycle;Signal;HPM_P1;HPM_P2
2021/11/15 00:00:34;;;;;;;5.45;2.80;;;-1.40;99.90;;;;;;4384065;32;20532;-72
2021/11/15 00:03:00;;;;;;;5.47;3.00;;;-1.30;99.90;;;;;;4380788;32;20093;-73
2021/11/15 00:05:27;;;;;;;5.47;2.42;;;-1.40;99.90;;;;;;4395376;32;20074;-73
2021/11/15 00:07:53;;;;;;;5.97;2.60;;;-1.40;99.90;;;;;;4380231;32;20089;-73
2021/11/15 00:10:19;;;;;;;5.60;2.58;;;-1.40;99.90;;;;;;4380382;32;20073;-72
2021/11/15 00:12:52;;;;;;;7.82;2.75;;;-1.40;99.90;;;;;;4368421;32;20156;-73
2021/11/15 00:15:20;;;;;;;4.85;3.00;;;-1.30;99.90;;;;;;4380412;32;20510;-72
2021/11/15 00:17:46;;;;;;;3.95;2.70;;;-1.40;99.90;;;;;;4380251;32;20074;-73
2021/11/15 00:20:13;;;;;;;5.00;2.80;;;-1.30;99.90;;;;;;4367890;32;20084;-72
2021/11/15 00:22:39;;;;;;;4.00;3.05;;;-1.20;99.90;;;;;;4367838;32;20080;-73
2021/11/15 00:25:06;;;;;;;4.60;3.00;;;-1.30;99.90;;;;;;4367568;32;20077;-73
2021/11/15 00:27:32;;;;;;;4.55;2.90;;;-1.30;99.90;;;;;;4367772;32;20587;-73
2021/11/15 00:30:00;;;;;;;3.95;2.90;;;-1.40;99.90;;;;;;4380267;32;20077;-72
2021/11/15 00:32:29;;;;;;;5.28;2.90;;;-1.30;99.90;;;;;;4380134;32;20096;-72
2021/11/15 00:34:55;;;;;;;4.28;2.87;;;-1.40;99.90;;;;;;4367350;32;20081;-72
2021/11/15 00:37:22;;;;;;;4.57;2.70;;;-1.30;99.90;;;;;;4379951;32;20101;-72
2021/11/15 00:39:49;;;;;;;5.43;2.78;;;-1.40;99.90;;;;;;4379917;32;20101;-73
2021/11/15 00:42:15;;;;;;;5.15;3.05;;;-1.40;99.90;;;;;;4393926;32;20503;-72
2021/11/15 00:44:42;;;;;;;6.20;2.92;;;-1.70;99.90;;;;;;4354609;32;20092;-72
2021/11/15 00:47:08;;;;;;;5.22;2.87;;;-1.70;99.90;;;;;;4379943;32;20254;-73
2021/11/15 00:49:34;;;;;;;7.75;3.22;;;-1.70;99.90;;;;;;4379632;32;20084;-73
2021/11/15 00:52:01;;;;;;;4.10;2.70;;;-1.80;99.90;;;;;;4379221;32;20150;-71
2021/11/15 00:54:27;;;;;;;6.15;3.17;;;-1.80;99.90;;;;;;4379843;32;20084;-72
2021/11/15 00:56:53;;;;;;;4.85;2.70;;;-1.70;99.90;;;;;;4367065;32;20077;-72
2021/11/15 00:59:19;;;;;;;6.62;3.03;;;-1.80;99.90;;;;;;4366992;32;20101;-73
2021/11/15 01:01:45;;;;;;;4.75;2.90;;;-1.90;99.90;;;;;;4379425;32;20081;-72
2021/11/15 01:04:12;;;;;;;5.70;3.00;;;-1.80;99.90;;;;;;4379419;32;20089;-72
2021/11/15 01:06:38;;;;;;;4.65;2.50;;;-2.00;99.90;;;;;;4378997;32;20145;-72
2021/11/15 01:09:04;;;;;;;4.28;2.60;;;-2.10;99.90;;;;;;4379969;32;20086;-73
2021/11/15 01:11:31;;;;;;;3.92;2.78;;;-2.00;99.90;;;;;;4378771;32;20093;-73
2021/11/15 01:13:57;;;;;;;5.32;2.70;;;-2.30;99.90;;;;;;4393324;32;20077;-72
2021/11/15 01:16:23;;;;;;;6.05;3.05;;;-2.30;99.90;;;;;;4378939;32;20058;-73
2021/11/15 01:18:50;;;;;;;8.30;2.67;;;-2.50;99.90;;;;;;4366863;32;20097;-71
2021/11/15 01:21:17;;;;;;;6.03;3.00;;;-2.40;99.90;;;;;;4379568;32;20074;-73
2021/11/15 01:23:43;;;;;;;5.97;2.90;;;-2.50;99.90;;;;;;4379350;32;20073;-72
2021/11/15 01:26:10;;;;;;;6.62;2.70;;;-2.40;99.90;;;;;;4379649;32;20090;-73
2021/11/15 01:28:36;;;;;;;4.53;2.45;;;-2.50;99.90;;;;;;4366758;32;20077;-72
2021/11/15 01:31:03;;;;;;;5.53;2.80;;;-2.40;99.90;;;;;;4366550;32;20078;-73
2021/11/15 01:33:29;;;;;;;5.32;2.90;;;-2.50;99.90;;;;;;4354225;32;20082;-72
2021/11/15 01:35:56;;;;;;;5.00;3.05;;;-2.40;99.90;;;;;;4366728;32;20070;-72
2021/11/15 01:38:22;;;;;;;5.10;2.60;;;-2.40;99.90;;;;;;4392583;32;20085;-72
2021/11/15 01:40:48;;;;;;;5.22;2.80;;;-2.40;99.90;;;;;;4366341;32;20065;-72
2021/11/15 01:43:14;;;;;;;4.40;2.70;;;-2.40;99.90;;;;;;4379005;32;20086;-73
2021/11/15 01:45:41;;;;;;;4.15;2.60;;;-2.50;99.90;;;;;;4366430;32;20082;-72
2021/11/15 01:48:08;;;;;;;4.30;3.00;;;-2.50;99.90;;;;;;4354066;32;20459;-73
2021/11/15 01:50:36;;;;;;;5.53;3.00;;;-2.40;99.90;;;;;;4366309;32;20067;-72
2021/11/15 01:53:04;;;;;;;4.45;2.60;;;-2.50;99.90;;;;;;4366092;32;20451;-72
2021/11/15 01:55:30;;;;;;;3.75;2.60;;;-2.50;99.90;;;;;;4366352;32;20173;-72
2021/11/15 01:57:57;;;;;;;5.28;2.90;;;-2.50;99.90;;;;;;4354068;32;20069;-73
2021/11/15 02:00:34;;;;;;;3.70;2.75;;;-2.50;99.90;;;;;;4393039;32;20073;-72
2021/11/15 02:03:01;;;;;;;3.85;2.70;;;-2.40;99.90;;;;;;4367030;32;20093;-73
2021/11/15 02:05:27;;;;;;;4.43;3.05;;;-2.40;99.90;;;;;;4378989;32;20505;-72
2021/11/15 02:07:53;;;;;;;5.35;2.97;;;-2.30;99.90;;;;;;4365997;32;20443;-73
2021/11/15 02:10:19;;;;;;;5.20;2.83;;;-2.30;99.90;;;;;;4378681;32;20094;-73
2021/11/15 02:12:46;;;;;;;4.78;2.72;;;-2.30;99.90;;;;;;4378656;32;20166;-73
2021/11/15 02:15:13;;;;;;;3.95;2.53;;;-2.30;99.90;;;;;;4365712;32;20074;-71
2021/11/15 02:17:44;;;;;;;4.37;2.83;;;-2.30;99.90;;;;;;4366475;32;20223;-72
2021/11/15 02:20:48;;;;;;;3.85;2.83;;;-2.40;99.90;;;;;;4365779;32;20150;-72
2021/11/15 02:23:15;;;;;;;5.80;3.00;;;-2.20;99.90;;;;;;4377886;32;20089;-71
2021/11/15 02:25:41;;;;;;;4.12;2.92;;;-2.20;99.90;;;;;;4353412;32;20086;-72
2021/11/15 02:28:08;;;;;;;5.43;3.22;;;-2.30;99.90;;;;;;4366141;32;20522;-72
2021/11/15 02:30:34;;;;;;;3.92;2.78;;;-2.30;99.90;;;;;;4378834;32;20150;-72
2021/11/15 02:33:01;;;;;;;4.30;2.72;;;-2.20;99.90;;;;;;4379127;32;20079;-73
2021/11/15 02:35:27;;;;;;;4.30;2.95;;;-2.10;99.90;;;;;;4380973;32;20097;-72
2021/11/15 02:37:53;;;;;;;5.20;2.90;;;-2.10;99.90;;;;;;4355083;32;20613;-72
2021/11/15 02:40:22;;;;;;;5.75;3.10;;;-2.20;99.90;;;;;;4382736;32;20081;-72
2021/11/15 02:42:49;;;;;;;4.93;2.80;;;-2.20;99.90;;;;;;4389064;32;20069;-72
2021/11/15 02:45:16;;;;;;;4.95;2.95;;;-2.20;99.90;;;;;;4387916;32;20153;-72
2021/11/15 02:47:42;;;;;;;4.90;2.97;;;-2.20;99.90;;;;;;4395482;32;20077;-71
2021/11/15 02:50:14;;;;;;;4.62;2.90;;;-2.20;99.90;;;;;;4354504;32;20081;-73
2021/11/15 02:52:49;;;;;;;5.85;3.42;;;-2.10;99.90;;;;;;4383973;32;20069;-72
2021/11/15 02:55:15;;;;;;;6.07;3.20;;;-2.10;99.90;;;;;;4355627;32;20083;-73
2021/11/15 02:57:41;;;;;;;4.65;3.20;;;-2.20;99.90;;;;;;4378397;32;20458;-72
2021/11/15 03:00:24;;;;;;;5.70;3.50;;;-2.20;99.90;;;;;;4378663;32;20066;-72
2021/11/15 03:02:51;;;;;;;5.60;3.30;;;-2.30;99.90;;;;;;4379492;32;20169;-73
2021/11/15 03:05:30;;;;;;;9.18;4.45;;;-2.20;99.90;;;;;;4377862;32;20158;-72
2021/11/15 03:07:56;;;;;;;6.70;3.60;;;-2.00;99.90;;;;;;4353678;32;20073;-73
2021/11/15 03:10:23;;;;;;;6.55;3.60;;;-2.10;99.90;;;;;;4365704;32;20170;-73
2021/11/15 03:12:49;;;;;;;5.72;3.50;;;-2.10;99.90;;;;;;4365660;32;20066;-73
2021/11/15 03:15:32;;;;;;;5.68;3.70;;;-2.10;99.90;;;;;;4365261;32;20082;-73
2021/11/15 03:18:07;;;;;;;5.72;4.03;;;-2.20;99.90;;;;;;4365164;32;20080;-73
2021/11/15 03:20:40;;;;;;;5.65;3.20;;;-2.20;99.90;;;;;;4365002;32;20088;-74
2021/11/15 03:23:15;;;;;;;4.22;2.58;;;-2.10;99.90;;;;;;4365266;32;20082;-72
2021/11/15 03:25:42;;;;;;;4.15;2.92;;;-1.60;99.90;;;;;;4378004;32;20081;-73
2021/11/15 03:28:10;;;;;;;4.68;3.47;;;-1.90;99.90;;;;;;4364655;32;20456;-72
2021/11/15 03:30:36;;;;;;;5.22;3.80;;;-2.10;99.90;;;;;;4353284;32;20433;-74
2021/11/15 03:33:02;;;;;;;5.28;3.60;;;-2.10;99.90;;;;;;4378546;32;20103;-72
2021/11/15 03:35:28;;;;;;;5.57;3.70;;;-2.00;99.90;;;;;;4382472;32;20073;-73
2021/11/15 03:37:55;;;;;;;6.25;3.72;;;-2.00;99.90;;;;;;4370900;32;20144;-73
2021/11/15 03:40:24;;;;;;;4.72;2.50;;;-2.10;99.90;;;;;;4370202;32;20066;-73
2021/11/15 03:42:56;;;;;;;4.47;2.53;;;-2.00;99.90;;;;;;4365699;32;20088;-73
2021/11/15 03:45:23;;;;;;;6.28;2.72;;;-1.70;99.90;;;;;;4365056;32;20174;-72
2021/11/15 03:47:49;;;;;;;4.00;2.53;;;-1.80;99.90;;;;;;4377945;32;20584;-72
2021/11/15 03:50:16;;;;;;;4.80;3.33;;;-1.80;99.90;;;;;;4364919;32;20065;-72
2021/11/15 03:52:43;;;;;;;6.28;3.70;;;-1.80;99.90;;;;;;4365002;32;20094;-72
2021/11/15 03:55:10;;;;;;;6.57;3.58;;;-2.10;99.90;;;;;;4377829;32;20078;-72
2021/11/15 03:57:37;;;;;;;5.35;3.42;;;-2.30;99.90;;;;;;4365249;32;20076;-73
2021/11/15 04:00:06;;;;;;;4.80;3.30;;;-2.20;99.90;;;;;;4377405;32;20094;-73
2021/11/15 04:02:33;;;;;;;5.75;3.55;;;-2.30;99.90;;;;;;4365161;32;20105;-72
2021/11/15 04:05:04;;;;;;;6.80;3.50;;;-2.30;99.90;;;;;;4354170;32;20088;-72
2021/11/15 04:07:37;;;;;;;5.90;3.55;;;-2.30;99.90;;;;;;4359350;32;20081;-72
2021/11/15 04:10:39;;;;;;;4.57;2.80;;;-2.40;99.90;;;;;;4378716;32;20080;-72
2021/11/15 04:13:15;;;;;;;7.87;3.40;;;-2.40;99.90;;;;;;4378012;32;20081;-73
2021/11/15 04:15:41;;;;;;;4.47;2.97;;;-2.40;99.90;;;;;;4377576;32;20085;-73
2021/11/15 04:18:10;;;;;;;3.85;2.80;;;-2.40;99.90;;;;;;4364501;32;20100;-72
2021/11/15 04:20:36;;;;;;;4.87;3.20;;;-2.40;99.90;;;;;;4364933;32;20077;-72
2021/11/15 04:23:03;;;;;;;6.47;2.72;;;-2.40;99.90;;;;;;4364459;32;20152;-72
2021/11/15 04:25:29;;;;;;;3.95;2.47;;;-2.50;99.90;;;;;;4364743;32;20068;-73
2021/11/15 04:27:56;;;;;;;3.92;2.55;;;-2.40;99.90;;;;;;4365145;32;20504;-73
2021/11/15 04:30:22;;;;;;;3.97;2.33;;;-2.50;99.90;;;;;;4364389;32;20161;-73
2021/11/15 04:32:48;;;;;;;3.22;2.30;;;-2.50;99.90;;;;;;4352542;32;20144;-71
2021/11/15 04:35:18;;;;;;;3.60;2.40;;;-2.40;99.90;;;;;;4365405;32;20097;-73
2021/11/15 04:37:45;;;;;;;4.80;2.62;;;-2.40;99.90;;;;;;4352974;32;20068;-71
2021/11/15 04:40:11;;;;;;;4.60;2.45;;;-2.40;99.90;;;;;;4364587;32;20116;-72
2021/11/15 04:42:38;;;;;;;3.03;2.05;;;-2.30;99.90;;;;;;4377137;32;20166;-72
2021/11/15 04:45:04;;;;;;;4.35;2.47;;;-2.30;99.90;;;;;;4376816;32;20077;-73
2021/11/15 04:47:31;;;;;;;4.75;2.10;;;-2.50;99.90;;;;;;4366326;32;20093;-73
2021/11/15 04:49:57;;;;;;;3.47;2.40;;;-2.40;99.90;;;;;;4379680;32;20077;-72
2021/11/15 04:52:23;;;;;;;4.15;2.47;;;-2.40;99.90;;;;;;4366877;32;20077;-73
2021/11/15 04:54:49;;;;;;;3.92;2.53;;;-2.40;99.90;;;;;;4355077;32;20082;-73
2021/11/15 04:57:18;;;;;;;3.22;2.15;;;-2.30;99.90;;;;;;4379488;32;20493;-72
2021/11/15 04:59:45;;;;;;;2.55;1.95;;;-2.40;99.90;;;;;;4379704;32;20520;-73
2021/11/15 05:02:12;;;;;;;4.18;2.47;;;-2.30;99.90;;;;;;4380266;32;20189;-72
2021/11/15 05:04:38;;;;;;;5.65;2.55;;;-2.30;99.90;;;;;;4367685;32;20078;-73
2021/11/15 05:07:04;;;;;;;4.28;2.58;;;-2.40;99.90;;;;;;4367218;32;20081;-73
2021/11/15 05:09:31;;;;;;;3.45;2.40;;;-2.30;99.90;;;;;;4379211;32;20076;-73
2021/11/15 05:11:57;;;;;;;4.82;2.70;;;-2.40;99.90;;;;;;4379360;32;20153;-71
2021/11/15 05:14:23;;;;;;;4.45;2.45;;;-2.40;99.90;;;;;;4379521;32;20062;-72
2021/11/15 05:16:49;;;;;;;5.30;2.62;;;-2.40;99.90;;;;;;4379671;32;20078;-72
2021/11/15 05:19:15;;;;;;;5.55;3.05;;;-2.40;99.90;;;;;;4379487;32;20088;-72
2021/11/15 05:21:42;;;;;;;4.53;2.70;;;-2.30;99.90;;;;;;4379305;32;20081;-73
2021/11/15 05:24:08;;;;;;;4.57;2.97;;;-2.30;99.90;;;;;;4379458;32;20470;-72
2021/11/15 05:26:34;;;;;;;5.60;3.05;;;-2.30;99.90;;;;;;4366683;32;20073;-72
2021/11/15 05:29:01;;;;;;;4.25;2.95;;;-2.30;99.90;;;;;;4378948;32;20081;-72
2021/11/15 05:31:28;;;;;;;5.05;3.10;;;-2.30;99.90;;;;;;4366379;32;20066;-73
2021/11/15 05:33:54;;;;;;;4.90;3.28;;;-2.20;99.90;;;;;;4367082;32;20077;-72
2021/11/15 05:36:20;;;;;;;4.20;2.47;;;-2.10;99.90;;;;;;4379189;32;20179;-72
2021/11/15 05:38:46;;;;;;;3.58;2.37;;;-2.20;99.90;;;;;;4378687;32;20069;-72
2021/11/15 05:41:12;;;;;;;4.90;2.78;;;-2.10;99.90;;;;;;4378839;32;20079;-73
2021/11/15 05:43:38;;;;;;;4.05;2.60;;;-2.10;99.90;;;;;;4372759;32;21451;-72
2021/11/15 05:46:04;;;;;;;4.80;2.90;;;-1.90;99.90;;;;;;4360905;32;20512;-69
2021/11/15 05:48:31;;;;;;;5.68;3.50;;;-2.00;99.90;;;;;;4364473;32;20089;-69
2021/11/15 05:50:57;;;;;;;6.32;2.83;;;-2.10;99.90;;;;;;4374304;32;20082;-69
2021/11/15 05:53:23;;;;;;;5.62;3.35;;;-2.00;99.90;;;;;;4344572;32;20070;-69
2021/11/15 05:55:49;;;;;;;5.00;2.92;;;-1.80;99.90;;;;;;4377273;32;20058;-67
2021/11/15 05:58:15;;;;;;;4.85;3.35;;;-1.80;99.90;;;;;;4375791;32;20089;-67
2021/11/15 06:00:42;;;;;;;6.32;3.40;;;-1.80;99.90;;;;;;4377542;32;20163;-72
2021/11/15 06:03:08;;;;;;;4.20;3.15;;;-1.70;99.90;;;;;;4374344;32;20574;-68
2021/11/15 06:05:35;;;;;;;4.37;3.08;;;-1.60;99.90;;;;;;4350465;32;20177;-68
2021/11/15 06:08:01;;;;;;;4.25;2.97;;;-1.50;99.90;;;;;;4349337;32;20069;-70
2021/11/15 06:10:27;;;;;;;6.03;3.37;;;-1.60;99.90;;;;;;4377660;32;20223;-70
2021/11/15 06:12:55;;;;;;;5.30;3.75;;;-1.60;99.90;;;;;;4378155;32;20073;-68
2021/11/15 06:15:21;;;;;;;4.80;3.25;;;-1.40;99.90;;;;;;4377684;32;20081;-68
2021/11/15 06:17:48;;;;;;;4.70;3.22;;;-1.40;99.90;;;;;;4344520;32;20093;-71
2021/11/15 06:20:15;;;;;;;5.80;3.37;;;-1.40;99.90;;;;;;4385566;32;20120;-69
2021/11/15 06:22:42;;;;;;;5.85;3.53;;;-1.10;99.90;;;;;;4364644;32;20064;-69
2021/11/15 06:25:09;;;;;;;4.87;3.20;;;-1.10;99.90;;;;;;4335909;32;20081;-67
2021/11/15 06:27:35;;;;;;;6.85;4.07;;;-1.10;99.90;;;;;;4356438;32;20563;-68
2021/11/15 06:30:04;;;;;;;5.18;3.50;;;-1.00;99.90;;;;;;4349176;32;20083;-64
2021/11/15 06:32:30;;;;;;;4.57;3.03;;;-0.70;99.90;;;;;;4339412;32;20082;-71
2021/11/15 06:34:57;;;;;;;6.45;3.17;;;-1.00;99.90;;;;;;4354776;32;20101;-72
2021/11/15 06:37:25;;;;;;;4.12;2.95;;;-0.70;99.90;;;;;;4369319;32;20135;-71
2021/11/15 06:39:51;;;;;;;4.57;3.20;;;-0.70;99.90;;;;;;4363049;32;20464;-71
2021/11/15 06:42:17;;;;;;;5.75;3.72;;;-0.60;99.90;;;;;;4360219;32;20073;-70
2021/11/15 06:44:44;;;;;;;3.97;2.78;;;-0.40;99.90;;;;;;4347691;32;20101;-72
2021/11/15 06:47:10;;;;;;;5.78;3.40;;;-0.70;99.90;;;;;;4363716;32;20562;-72
2021/11/15 06:49:37;;;;;;;7.25;3.30;;;-0.70;99.90;;;;;;4350974;32;20074;-71
2021/11/15 06:52:05;;;;;;;4.85;3.33;;;-1.00;99.90;;;;;;4377115;32;20568;-70
2021/11/15 06:54:31;;;;;;;4.22;3.08;;;-0.60;99.90;;;;;;4363631;32;20128;-71
2021/11/15 06:56:57;;;;;;;5.72;3.15;;;-0.60;99.90;;;;;;4342518;32;20512;-69
2021/11/15 06:59:24;;;;;;;5.45;3.45;;;-0.60;99.90;;;;;;4363725;32;20097;-71
2021/11/15 07:01:50;;;;;;;5.75;3.47;;;-0.60;99.90;;;;;;4376576;32;20176;-70
2021/11/15 07:04:16;;;;;;;6.12;2.62;;;-0.60;99.90;;;;;;4376786;32;20078;-68
2021/11/15 07:06:43;;;;;;;5.57;2.95;;;-1.00;99.90;;;;;;4374106;32;20086;-69
2021/11/15 07:09:10;;;;;;;4.37;2.87;;;-0.70;99.90;;;;;;4367247;32;20106;-70
2021/11/15 07:11:36;;;;;;;6.00;3.35;;;-0.50;99.90;;;;;;4344576;32;20055;-67
2021/11/15 07:14:03;;;;;;;5.57;3.42;;;-0.20;99.90;;;;;;4348033;32;20172;-73
2021/11/15 07:16:30;;;;;;;4.87;3.33;;;-0.40;99.90;;;;;;4356108;32;20066;-71
2021/11/15 07:18:56;;;;;;;5.72;3.80;;;-0.50;99.90;;;;;;4373356;32;20071;-67
2021/11/15 07:21:23;;;;;;;6.40;3.42;;;-0.60;99.90;;;;;;4365880;32;20526;-66
2021/11/15 07:23:50;;;;;;;6.22;4.00;;;-0.20;99.90;;;;;;4346553;32;20105;-69
2021/11/15 07:26:16;;;;;;;7.03;3.67;;;-0.30;99.90;;;;;;4335800;32;20151;-69
2021/11/15 07:28:42;;;;;;;5.32;3.35;;;-0.20;99.90;;;;;;4346232;32;20074;-66
2021/11/15 07:31:09;;;;;;;7.55;3.87;;;-0.10;99.90;;;;;;4381378;32;20073;-65
2021/11/15 07:33:35;;;;;;;5.72;3.85;;;-0.10;99.90;;;;;;4343684;32;20070;-70
2021/11/15 07:36:02;;;;;;;6.12;3.87;;;-0.10;99.90;;;;;;4362243;32;20110;-68
2021/11/15 07:38:28;;;;;;;6.87;3.58;;;-0.20;99.90;;;;;;4349670;32;20085;-65
2021/11/15 07:40:54;;;;;;;5.78;3.45;;;0.00;99.90;;;;;;4348702;32;20064;-68
2021/11/15 07:43:22;;;;;;;5.75;3.67;;;0.00;99.90;;;;;;4369279;32;20090;-67
2021/11/15 07:45:48;;;;;;;7.03;3.35;;;-0.10;99.90;;;;;;4349834;32;20113;-71
2021/11/15 07:48:14;;;;;;;5.47;3.55;;;0.10;99.90;;;;;;4346094;32;20126;-69
2021/11/15 07:50:41;;;;;;;8.55;3.97;;;0.40;99.90;;;;;;4366419;32;20110;-69
2021/11/15 07:53:07;;;;;;;6.07;3.78;;;0.40;99.90;;;;;;4338935;32;20093;-71
2021/11/15 07:55:33;;;;;;;7.07;3.53;;;0.40;99.90;;;;;;4373000;32;20496;-70
2021/11/15 07:58:01;;;;;;;5.37;3.30;;;0.30;99.90;;;;;;4357403;32;20082;-68
2021/11/15 08:00:28;;;;;;;6.15;3.05;;;0.10;99.90;;;;;;4364805;32;20116;-72
2021/11/15 08:02:54;;;;;;;5.37;2.97;;;-0.20;99.90;;;;;;4360260;32;20477;-71
2021/11/15 08:05:21;;;;;;;5.72;3.80;;;0.00;99.90;;;;;;4363367;32;20062;-71
2021/11/15 08:07:48;;;;;;;6.45;4.05;;;-0.30;99.90;;;;;;4352957;32;20078;-71
2021/11/15 08:10:16;;;;;;;5.50;3.78;;;-0.10;99.90;;;;;;4358349;32;20181;-72
2021/11/15 08:12:45;;;;;;;6.28;3.53;;;0.10;99.90;;;;;;4375942;32;20101;-72
2021/11/15 08:15:13;;;;;;;5.60;3.53;;;-0.30;99.90;;;;;;4360473;32;20124;-70
2021/11/15 08:17:41;;;;;;;5.03;3.40;;;-0.50;99.90;;;;;;4344665;32;20137;-70
2021/11/15 08:20:14;;;;;;;6.28;3.70;;;-0.20;99.90;;;;;;4386697;32;20526;-70
2021/11/15 08:22:41;;;;;;;6.03;3.87;;;0.00;99.90;;;;;;4376087;32;20493;-72
2021/11/15 08:25:45;;;;;;;8.18;3.90;;;0.20;99.90;;;;;;4358119;32;20082;-74
2021/11/15 08:28:11;;;;;;;6.80;3.90;;;0.30;99.90;;;;;;4360926;32;20107;-71
2021/11/15 08:30:38;;;;;;;4.95;3.22;;;0.00;99.90;;;;;;4351620;32;20073;-71
2021/11/15 08:33:05;;;;;;;6.20;4.18;;;0.10;99.90;;;;;;4369061;32;20522;-69
2021/11/15 08:35:31;;;;;;;8.95;4.40;;;0.30;99.90;;;;;;4345532;32;20069;-69
2021/11/15 08:38:16;;;;;;;7.55;3.97;;;0.10;99.90;;;;;;4349132;32;20464;-66
2021/11/15 08:40:48;;;;;;;5.87;3.78;;;-0.10;99.90;;;;;;4377525;32;20073;-69
2021/11/15 08:43:16;;;;;;;6.18;3.42;;;-0.10;99.90;;;;;;4366340;32;20154;-70
2021/11/15 08:45:42;;;;;;;5.65;3.03;;;-0.20;99.90;;;;;;4366250;32;20058;-72
2021/11/15 08:48:09;;;;;;;4.85;3.12;;;-0.10;99.90;;;;;;4365824;32;20113;-71
2021/11/15 08:50:35;;;;;;;5.30;2.90;;;-0.20;99.90;;;;;;4365714;32;20070;-72
2021/11/15 08:53:02;;;;;;;4.97;3.37;;;-0.30;99.90;;;;;;4377926;32;20089;-72
2021/11/15 08:55:29;;;;;;;6.97;3.50;;;-0.30;99.90;;;;;;4353481;32;20150;-70
2021/11/15 08:57:55;;;;;;;5.03;3.08;;;-0.30;99.90;;;;;;4353498;32;20612;-73
2021/11/15 09:00:22;;;;;;;6.25;3.97;;;-0.70;99.90;;;;;;4349478;32;20117;-70
2021/11/15 09:02:48;;;;;;;5.30;3.50;;;-0.70;99.90;;;;;;4345954;32;20089;-70
2021/11/15 09:05:14;;;;;;;5.05;3.47;;;-0.80;99.90;;;;;;4372813;32;20635;-70
2021/11/15 09:07:41;;;;;;;6.03;3.87;;;-0.70;99.90;;;;;;4359129;32;20174;-70
2021/11/15 09:10:08;;;;;;;8.27;4.40;;;-0.60;99.90;;;;;;4366524;32;20528;-70
2021/11/15 09:12:35;;;;;;;11.65;6.12;;;-0.60;99.90;;;;;;4362657;32;20080;-71
2021/11/15 09:15:03;;;;;;;10.20;5.87;;;-0.60;99.90;;;;;;4352891;32;20187;-64
2021/11/15 09:17:31;;;;;;;13.07;7.37;;;-0.60;99.90;;;;;;4352161;32;20066;-72
2021/11/15 09:19:57;;;;;;;13.13;7.70;;;-0.90;99.90;;;;;;4346433;32;20472;-65
2021/11/15 09:22:23;;;;;;;13.52;7.37;;;-1.00;99.90;;;;;;4360507;32;20090;-68
2021/11/15 09:24:50;;;;;;;11.10;6.35;;;-0.90;99.90;;;;;;4355163;32;20131;-71
2021/11/15 09:27:17;;;;;;;9.95;5.65;;;-0.90;99.90;;;;;;4349717;32;20066;-69
2021/11/15 09:29:49;;;;;;;11.02;5.70;;;-0.90;99.90;;;;;;4356173;32;20086;-71
2021/11/15 09:32:16;;;;;;;10.13;6.50;;;-0.80;99.90;;;;;;4343299;32;20065;-69
2021/11/15 09:34:42;;;;;;;13.25;5.62;;;-0.90;99.90;;;;;;4338846;32;20070;-67
2021/11/15 09:37:10;;;;;;;13.45;6.37;;;-0.90;99.90;;;;;;4364101;32;20484;-69
2021/11/15 09:39:44;;;;;;;10.85;5.15;;;-1.00;99.90;;;;;;4347395;32;20101;-68
2021/11/15 09:42:11;;;;;;;10.15;5.60;;;-0.90;99.90;;;;;;4343729;32;20093;-67
2021/11/15 09:44:38;;;;;;;7.95;4.78;;;-0.90;99.90;;;;;;4333129;32;20100;-68
2021/11/15 09:47:07;;;;;;;7.82;4.87;;;-1.10;99.90;;;;;;4360196;32;20137;-65
2021/11/15 09:49:34;;;;;;;9.45;5.60;;;-1.00;99.90;;;;;;4372689;32;20551;-69
2021/11/15 09:52:00;;;;;;;6.72;4.15;;;-1.10;99.90;;;;;;4372108;32;20121;-66
2021/11/15 09:54:27;;;;;;;9.75;5.07;;;-0.80;99.90;;;;;;4371789;32;20192;-65
2021/11/15 09:56:54;;;;;;;7.75;3.95;;;-1.10;99.90;;;;;;4370848;32;20579;-65
2021/11/15 09:59:21;;;;;;;7.62;4.78;;;-0.90;99.90;;;;;;4370230;32;20101;-68
2021/11/15 10:01:49;;;;;;;8.20;4.93;;;-1.00;99.90;;;;;;4322973;32;20093;-65
2021/11/15 10:04:17;;;;;;;8.75;4.57;;;-1.00;99.90;;;;;;4359724;32;20093;-66
2021/11/15 10:06:48;;;;;;;8.90;5.32;;;-1.00;99.90;;;;;;4355851;32;20121;-69
2021/11/15 10:09:24;;;;;;;8.55;4.90;;;-1.20;99.90;;;;;;4347323;32;20193;-66
2021/11/15 10:11:51;;;;;;;9.38;5.82;;;-0.80;99.90;;;;;;4358466;32;20141;-66
2021/11/15 10:14:18;;;;;;;9.10;5.65;;;-1.10;99.90;;;;;;4363816;32;20102;-69
2021/11/15 10:17:01;;;;;;;9.63;4.95;;;-1.00;99.90;;;;;;4360495;32;20086;-69
2021/11/15 10:19:28;;;;;;;11.70;6.10;;;-0.90;99.90;;;;;;4359560;32;20147;-68
2021/11/15 10:22:05;;;;;;;9.13;5.55;;;-1.20;99.90;;;;;;4361082;32;20070;-68
2021/11/15 10:24:42;;;;;;;8.77;4.90;;;-1.10;99.90;;;;;;4360222;32;20109;-64
2021/11/15 10:27:27;;;;;;;6.68;3.67;;;-1.40;99.90;;;;;;4357867;32;20829;-64
2021/11/15 10:29:53;;;;;;;9.15;5.30;;;-1.40;99.90;;;;;;4350606;32;20072;-64
2021/11/15 10:32:29;;;;;;;8.82;5.05;;;-1.30;99.90;;;;;;4359575;32;20082;-64
2021/11/15 10:34:58;;;;;;;;;;;-1.40;99.90;;;;;;4364437;32;20086;-62
2021/11/15 10:37:29;;;;;;;5.87;4.03;;;-1.20;99.90;;;;;;4375432;32;19965;-63
2021/11/15 10:40:01;;;;;;;7.97;4.95;;;-0.90;99.90;;;;;;4348146;32;20154;-63
2021/11/15 10:42:35;;;;;;;8.77;4.85;;;-1.10;99.90;;;;;;4356239;32;20077;-62
2021/11/15 10:45:21;;;;;;;6.12;4.10;;;-1.20;99.90;;;;;;4343680;32;20165;-63
2021/11/15 10:47:58;;;;;;;6.07;4.47;;;-1.20;99.90;;;;;;4358097;32;20104;-62
2021/11/15 10:50:44;;;;;;;7.35;4.43;;;-1.30;99.90;;;;;;4344139;32;20101;-62
2021/11/15 10:53:24;;;;;;;7.78;4.07;;;-1.30;99.90;;;;;;4361612;32;20117;-63
2021/11/15 10:56:15;;;;;;;8.05;3.67;;;-1.10;99.90;;;;;;4358871;32;20078;-64
2021/11/15 10:58:44;;;;;;;5.35;3.60;;;-1.30;99.90;;;;;;4370198;32;20150;-64
2021/11/15 11:01:11;;;;;;;5.68;3.35;;;-1.30;99.90;;;;;;4361481;32;20088;-60
2021/11/15 11:03:37;;;;;;;4.15;3.03;;;-1.30;99.90;;;;;;4348984;32;20522;-61
2021/11/15 11:06:11;;;;;;;4.95;3.00;;;-1.20;99.90;;;;;;4345502;32;20070;-61
2021/11/15 11:08:45;;;;;;;7.50;3.67;;;-1.10;99.90;;;;;;4369847;32;21390;-62
2021/11/15 11:11:15;;;;;;;4.35;3.15;;;-1.20;99.90;;;;;;4349485;32;20542;-58
2021/11/15 11:13:55;;;;;;;4.78;3.40;;;-1.10;99.90;;;;;;4362219;32;20092;-61
2021/11/15 11:16:40;;;;;;;3.92;2.55;;;-1.40;99.90;;;;;;4359777;32;20097;-61
2021/11/15 11:27:33;;;;;;;5.28;2.28;;;-2.00;99.90;;;;;;4397015;32;21038;-62
2021/11/15 11:29:59;;;;;;;4.72;2.90;;;-1.90;99.90;;;;;;4377125;32;20588;-63
2021/11/15 11:32:27;;;;;;;4.40;2.33;;;-1.60;99.90;;;;;;4392339;32;20081;-62
2021/11/15 11:34:56;;;;;;;4.72;3.05;;;-1.60;99.90;;;;;;4403095;32;20501;-62
2021/11/15 11:37:25;;;;;;;3.50;2.25;;;-1.60;99.90;;;;;;4403032;32;20076;-64
2021/11/15 11:39:52;;;;;;;4.15;2.58;;;-1.60;99.90;;;;;;4401482;32;20130;-62
2021/11/15 11:42:19;;;;;;;3.50;2.40;;;-1.80;99.90;;;;;;4376957;32;20081;-64
2021/11/15 11:44:45;;;;;;;4.60;2.67;;;-1.60;99.90;;;;;;4387998;32;20101;-63
2021/11/15 11:47:18;;;;;;;4.40;2.62;;;-1.90;99.90;;;;;;4391897;32;20067;-64
2021/11/15 11:49:46;;;;;;;4.80;3.10;;;-2.00;99.90;;;;;;4375212;32;20089;-61
2021/11/15 11:52:14;;;;;;;4.45;2.62;;;-2.10;99.90;;;;;;4387356;32;20154;-61
2021/11/15 11:54:43;;;;;;;5.22;3.05;;;-2.20;99.90;;;;;;4384602;32;20528;-64
2021/11/15 11:57:32;;;;;;;4.05;2.33;;;-2.30;99.90;;;;;;4393989;32;20460;-64
2021/11/15 12:00:04;;;;;;;5.65;2.60;;;-2.30;99.90;;;;;;4396681;32;20093;-68
2021/11/15 12:02:31;;;;;;;4.80;2.55;;;-2.40;99.90;;;;;;4380486;32;20096;-64
2021/11/15 12:05:05;;;;;;;4.28;3.10;;;-2.40;99.90;;;;;;4396274;32;20092;-69
2021/11/15 12:07:37;;;;;;;4.93;2.55;;;-2.60;99.90;;;;;;4395452;32;20141;-69
2021/11/15 12:10:14;;;;;;;4.47;2.70;;;-2.60;99.90;;;;;;4388790;32;20085;-71
2021/11/15 12:12:53;;;;;;;6.00;3.80;;;-2.80;99.90;;;;;;4385497;32;20073;-70
2021/11/15 12:15:42;;;;;;;4.85;2.80;;;-2.90;99.90;;;;;;4392354;32;20570;-68
2021/11/15 12:18:22;;;;;;;4.95;3.10;;;-3.40;99.90;;;;;;4390344;32;20560;-63
2021/11/15 12:21:04;;;;;;;4.90;3.28;;;-3.50;99.90;;;;;;4377314;32;20141;-66
2021/11/15 12:23:50;;;;;;;5.12;3.30;;;-3.80;99.90;;;;;;4395042;32;20565;-63
2021/11/15 12:26:17;;;;;;;6.15;3.92;;;-3.70;99.90;;;;;;4404405;32;20153;-63
2021/11/15 12:28:46;;;;;;;6.18;3.30;;;-3.80;99.90;;;;;;4393258;32;20180;-65
2021/11/15 12:31:15;;;;;;;4.68;2.92;;;-3.80;99.90;;;;;;4392915;32;20088;-64
2021/11/15 12:33:42;;;;;;;5.78;3.65;;;-3.90;99.90;;;;;;4383654;32;20097;-64
2021/11/15 12:36:22;;;;;;;6.78;4.10;;;-3.90;99.90;;;;;;4374937;32;20571;-64
2021/11/15 12:38:58;;;;;;;6.78;4.12;;;-4.00;99.90;;;;;;4375693;32;20081;-64
2021/11/15 12:41:26;;;;;;;5.68;4.10;;;-3.90;99.90;;;;;;4384440;32;20088;-70
2021/11/15 12:43:59;;;;;;;6.12;3.78;;;-4.10;99.90;;;;;;4395164;32;20105;-68
2021/11/15 12:46:45;;;;;;;9.25;5.75;;;-4.00;99.90;;;;;;4395490;32;20559;-64
2021/11/15 12:49:51;;;;;;;7.60;4.90;;;-4.20;99.90;;;;;;4380541;32;20078;-66
2021/11/15 12:52:26;;;;;;;5.57;3.85;;;-4.30;99.90;;;;;;4345787;32;20643;-65
2021/11/15 12:55:06;;;;;;;7.37;4.57;;;-4.30;99.90;;;;;;4381999;32;20447;-71
2021/11/15 12:57:39;;;;;;;7.87;5.00;;;-4.30;99.90;;;;;;4382076;32;20585;-72
2021/11/15 13:00:12;;;;;;;7.03;4.70;;;-4.40;99.90;;;;;;4358874;32;20438;-73
2021/11/15 13:02:38;;;;;;;7.10;3.83;;;-4.30;99.90;;;;;;4385131;32;20136;-68
2021/11/15 13:05:08;;;;;;;6.28;3.92;;;-4.40;99.90;;;;;;4385056;32;20110;-66